sensor_id;sensor_type;location;lat;lon;timestamp;noise_LAeq;noise_LA_min;noise_LA_max;noise_LA01;noise_LA95
43512;Laerm;34054;52.100;5.116;2023-11-21T00:00:10;35.91;32.86;40.30;;
43512;Laerm;34054;52.100;5.116;2023-11-21T00:00:43;36.06;33.73;39.50;;
43512;Laerm;34054;52.100;5.116;2023-11-21T00:01:17;36.05;33.76;41.42;;
43512;Laerm;34054;52.100;5.116;2023-11-21T00:01:48;36.03;33.23;41.13;;
43512;Laerm;34054;52.100;5.116;2023-11-21T00:02:20;36.00;32.84;41.05;;
43512;Laerm;34054;52.100;5.116;2023-11-21T00:02:51;36.03;33.75;40.10;;
43512;Laerm;34054;52.100;5.116;2023-11-21T00:03:24;36.01;33.79;40.33;;
43512;Laerm;34054;52.100;5.116;2023-11-21T00:03:55;35.99;33.74;39.95;;
43512;Laerm;34054;52.100;5.116;2023-11-21T00:04:27;35.94;33.62;39.55;;
43512;Laerm;34054;52.100;5.116;2023-11-21T00:04:59;35.91;32.78;40.71;;
43512;Laerm;34054;52.100;5.116;2023-11-21T00:05:31;35.96;33.24;39.85;;
43512;Laerm;34054;52.100;5.116;2023-11-21T00:06:03;35.93;33.74;39.22;;
43512;Laerm;34054;52.100;5.116;2023-11-21T00:06:35;36.00;33.84;38.97;;
43512;Laerm;34054;52.100;5.116;2023-11-21T00:07:07;35.97;33.06;40.14;;
43512;Laerm;34054;52.100;5.116;2023-11-21T00:07:39;36.04;33.70;39.78;;
43512;Laerm;34054;52.100;5.116;2023-11-21T00:08:11;36.10;32.84;40.60;;
43512;Laerm;34054;52.100;5.116;2023-11-21T00:08:43;36.12;33.45;40.96;;
43512;Laerm;34054;52.100;5.116;2023-11-21T00:09:15;36.15;34.02;40.24;;
43512;Laerm;34054;52.100;5.116;2023-11-21T00:09:47;36.19;33.78;40.98;;
43512;Laerm;34054;52.100;5.116;2023-11-21T00:10:18;36.11;33.74;40.43;;
43512;Laerm;34054;52.100;5.116;2023-11-21T00:10:50;36.14;33.28;39.37;;
43512;Laerm;34054;52.100;5.116;2023-11-21T00:11:22;36.18;33.96;40.44;;
43512;Laerm;34054;52.100;5.116;2023-11-21T00:11:54;36.18;33.87;39.81;;
43512;Laerm;34054;52.100;5.116;2023-11-21T00:12:25;36.16;33.74;40.40;;
43512;Laerm;34054;52.100;5.116;2023-11-21T00:12:57;36.26;32.89;40.72;;
43512;Laerm;34054;52.100;5.116;2023-11-21T00:13:29;36.21;34.07;39.91;;
43512;Laerm;34054;52.100;5.116;2023-11-21T00:14:01;36.26;33.67;40.36;;
43512;Laerm;34054;52.100;5.116;2023-11-21T00:14:32;36.18;33.88;40.53;;
43512;Laerm;34054;52.100;5.116;2023-11-21T00:15:05;36.21;33.48;41.59;;
43512;Laerm;34054;52.100;5.116;2023-11-21T00:15:40;36.11;33.69;40.14;;
43512;Laerm;34054;52.100;5.116;2023-11-21T00:16:13;36.12;33.80;40.46;;
43512;Laerm;34054;52.100;5.116;2023-11-21T00:16:45;36.14;33.80;41.35;;
43512;Laerm;34054;52.100;5.116;2023-11-21T00:17:16;36.12;33.91;40.89;;
43512;Laerm;34054;52.100;5.116;2023-11-21T00:17:48;36.14;33.94;39.98;;
43512;Laerm;34054;52.100;5.116;2023-11-21T00:18:21;36.18;33.37;41.66;;
43512;Laerm;34054;52.100;5.116;2023-11-21T00:18:52;36.09;33.91;40.21;;
43512;Laerm;34054;52.100;5.116;2023-11-21T00:19:24;36.13;34.03;40.13;;
43512;Laerm;34054;52.100;5.116;2023-11-21T00:19:55;36.06;33.89;40.05;;
43512;Laerm;34054;52.100;5.116;2023-11-21T00:20:28;36.11;33.27;39.56;;
43512;Laerm;34054;52.100;5.116;2023-11-21T00:20:59;36.02;33.75;40.05;;
43512;Laerm;34054;52.100;5.116;2023-11-21T00:21:31;36.04;33.04;40.78;;
43512;Laerm;34054;52.100;5.116;2023-11-21T00:22:03;35.92;33.21;40.36;;
43512;Laerm;34054;52.100;5.116;2023-11-21T00:22:35;35.98;33.56;40.21;;
43512;Laerm;34054;52.100;5.116;2023-11-21T00:23:07;35.98;33.32;40.65;;
43512;Laerm;34054;52.100;5.116;2023-11-21T00:23:41;36.00;33.52;39.74;;
43512;Laerm;34054;52.100;5.116;2023-11-21T00:24:13;35.94;33.65;39.68;;
43512;Laerm;34054;52.100;5.116;2023-11-21T00:24:45;35.96;33.36;40.15;;
43512;Laerm;34054;52.100;5.116;2023-11-21T00:25:17;35.87;33.29;39.51;;
43512;Laerm;34054;52.100;5.116;2023-11-21T00:25:48;35.83;33.90;39.64;;
43512;Laerm;34054;52.100;5.116;2023-11-21T00:26:21;35.82;33.43;40.54;;
43512;Laerm;34054;52.100;5.116;2023-11-21T00:26:52;35.78;33.43;39.49;;
43512;Laerm;34054;52.100;5.116;2023-11-21T00:27:24;35.80;33.18;40.05;;
43512;Laerm;34054;52.100;5.116;2023-11-21T00:27:56;35.75;33.31;39.40;;
43512;Laerm;34054;52.100;5.116;2023-11-21T00:28:28;35.79;33.66;39.95;;
43512;Laerm;34054;52.100;5.116;2023-11-21T00:29:00;35.74;33.76;39.04;;
43512;Laerm;34054;52.100;5.116;2023-11-21T00:29:31;35.79;33.45;40.16;;
43512;Laerm;34054;52.100;5.116;2023-11-21T00:30:05;35.81;32.60;40.09;;
43512;Laerm;34054;52.100;5.116;2023-11-21T00:30:38;35.79;33.13;39.43;;
43512;Laerm;34054;52.100;5.116;2023-11-21T00:31:10;35.69;32.39;39.50;;
43512;Laerm;34054;52.100;5.116;2023-11-21T00:31:43;35.75;33.46;40.00;;
43512;Laerm;34054;52.100;5.116;2023-11-21T00:32:14;35.75;33.30;39.44;;
43512;Laerm;34054;52.100;5.116;2023-11-21T00:32:47;35.72;33.50;40.42;;
43512;Laerm;34054;52.100;5.116;2023-11-21T00:33:18;35.63;33.13;39.58;;
43512;Laerm;34054;52.100;5.116;2023-11-21T00:33:50;35.65;33.75;39.41;;
43512;Laerm;34054;52.100;5.116;2023-11-21T00:34:22;35.54;33.18;39.65;;
43512;Laerm;34054;52.100;5.116;2023-11-21T00:34:54;35.64;32.07;39.77;;
43512;Laerm;34054;52.100;5.116;2023-11-21T00:35:26;35.60;31.94;40.01;;
43512;Laerm;34054;52.100;5.116;2023-11-21T00:35:57;35.54;33.12;39.83;;
43512;Laerm;34054;52.100;5.116;2023-11-21T00:36:29;35.52;32.73;39.60;;
43512;Laerm;34054;52.100;5.116;2023-11-21T00:37:01;35.51;33.03;39.81;;
43512;Laerm;34054;52.100;5.116;2023-11-21T00:37:34;35.50;31.95;40.31;;
43512;Laerm;34054;52.100;5.116;2023-11-21T00:38:05;35.40;32.54;39.43;;
43512;Laerm;34054;52.100;5.116;2023-11-21T00:38:37;35.42;32.00;39.31;;
43512;Laerm;34054;52.100;5.116;2023-11-21T00:39:11;35.54;33.20;39.00;;
43512;Laerm;34054;52.100;5.116;2023-11-21T00:39:44;35.58;33.15;40.09;;
43512;Laerm;34054;52.100;5.116;2023-11-21T00:40:15;35.58;32.98;39.69;;
43512;Laerm;34054;52.100;5.116;2023-11-21T00:40:50;35.55;33.35;39.73;;
43512;Laerm;34054;52.100;5.116;2023-11-21T00:41:22;35.54;32.86;39.22;;
43512;Laerm;34054;52.100;5.116;2023-11-21T00:41:55;35.50;31.39;39.27;;
43512;Laerm;34054;52.100;5.116;2023-11-21T00:42:26;35.55;32.33;40.72;;
43512;Laerm;34054;52.100;5.116;2023-11-21T00:42:58;35.67;33.19;40.15;;
43512;Laerm;34054;52.100;5.116;2023-11-21T00:43:30;35.59;33.25;39.29;;
43512;Laerm;34054;52.100;5.116;2023-11-21T00:44:05;35.65;33.54;39.86;;
43512;Laerm;34054;52.100;5.116;2023-11-21T00:44:37;35.64;33.75;39.35;;
43512;Laerm;34054;52.100;5.116;2023-11-21T00:45:10;35.64;33.39;39.58;;
43512;Laerm;34054;52.100;5.116;2023-11-21T00:45:42;35.63;33.21;39.56;;
43512;Laerm;34054;52.100;5.116;2023-11-21T00:46:15;35.69;33.62;40.10;;
43512;Laerm;34054;52.100;5.116;2023-11-21T00:46:47;35.65;33.53;40.09;;
43512;Laerm;34054;52.100;5.116;2023-11-21T00:47:19;35.70;33.35;39.55;;
43512;Laerm;34054;52.100;5.116;2023-11-21T00:47:50;35.66;33.31;39.14;;
43512;Laerm;34054;52.100;5.116;2023-11-21T00:48:23;35.67;33.09;40.19;;
43512;Laerm;34054;52.100;5.116;2023-11-21T00:48:54;35.67;32.86;40.60;;
43512;Laerm;34054;52.100;5.116;2023-11-21T00:49:26;35.74;33.55;39.36;;
43512;Laerm;34054;52.100;5.116;2023-11-21T00:49:59;35.74;33.49;40.35;;
43512;Laerm;34054;52.100;5.116;2023-11-21T00:50:31;35.76;33.23;40.56;;
43512;Laerm;34054;52.100;5.116;2023-11-21T00:51:04;35.79;33.48;39.41;;
43512;Laerm;34054;52.100;5.116;2023-11-21T00:51:37;35.77;33.60;40.51;;
43512;Laerm;34054;52.100;5.116;2023-11-21T00:52:09;35.81;33.06;39.12;;
43512;Laerm;34054;52.100;5.116;2023-11-21T00:52:41;35.77;33.28;39.25;;
43512;Laerm;34054;52.100;5.116;2023-11-21T00:53:12;35.79;33.01;40.53;;
43512;Laerm;34054;52.100;5.116;2023-11-21T00:53:45;35.82;33.40;39.71;;
43512;Laerm;34054;52.100;5.116;2023-11-21T00:54:17;35.82;33.75;40.40;;
43512;Laerm;34054;52.100;5.116;2023-11-21T00:54:49;35.83;33.74;40.03;;
43512;Laerm;34054;52.100;5.116;2023-11-21T00:55:21;35.80;33.78;40.07;;
43512;Laerm;34054;52.100;5.116;2023-11-21T00:55:54;35.79;33.40;40.40;;
43512;Laerm;34054;52.100;5.116;2023-11-21T00:56:29;35.75;33.43;40.69;;
43512;Laerm;34054;52.100;5.116;2023-11-21T00:57:00;35.78;33.84;39.21;;
43512;Laerm;34054;52.100;5.116;2023-11-21T00:57:32;35.82;33.10;40.52;;
43512;Laerm;34054;52.100;5.116;2023-11-21T00:58:04;35.84;32.77;40.19;;
43512;Laerm;34054;52.100;5.116;2023-11-21T00:58:36;35.82;32.86;40.32;;
43512;Laerm;34054;52.100;5.116;2023-11-21T00:59:08;35.83;33.24;40.86;;
43512;Laerm;34054;52.100;5.116;2023-11-21T00:59:42;35.84;33.44;40.00;;
43512;Laerm;34054;52.100;5.116;2023-11-21T01:00:14;35.79;33.18;40.20;;
43512;Laerm;34054;52.100;5.116;2023-11-21T01:00:48;35.88;33.47;40.30;;
43512;Laerm;34054;52.100;5.116;2023-11-21T01:01:21;35.91;33.68;40.82;;
43512;Laerm;34054;52.100;5.116;2023-11-21T01:01:57;35.90;32.58;41.01;;
43512;Laerm;34054;52.100;5.116;2023-11-21T01:02:31;35.94;33.75;40.08;;
43512;Laerm;34054;52.100;5.116;2023-11-21T01:03:03;35.99;33.68;41.35;;
43512;Laerm;34054;52.100;5.116;2023-11-21T01:03:35;35.95;33.35;39.54;;
43512;Laerm;34054;52.100;5.116;2023-11-21T01:04:07;35.92;33.18;40.55;;
43512;Laerm;34054;52.100;5.116;2023-11-21T01:04:38;35.64;33.33;40.31;;
43512;Laerm;34054;52.100;5.116;2023-11-21T01:05:10;35.92;33.95;40.34;;
43512;Laerm;34054;52.100;5.116;2023-11-21T01:05:43;35.86;33.15;40.26;;
43512;Laerm;34054;52.100;5.116;2023-11-21T01:06:15;35.95;34.11;39.77;;
43512;Laerm;34054;52.100;5.116;2023-11-21T01:06:46;35.87;33.74;40.64;;
43512;Laerm;34054;52.100;5.116;2023-11-21T01:07:18;35.88;34.09;40.29;;
43512;Laerm;34054;52.100;5.116;2023-11-21T01:07:51;35.86;33.74;39.61;;
43512;Laerm;34054;52.100;5.116;2023-11-21T01:08:24;35.94;33.73;40.98;;
43512;Laerm;34054;52.100;5.116;2023-11-21T01:08:55;35.95;33.11;39.31;;
43512;Laerm;34054;52.100;5.116;2023-11-21T01:09:27;35.90;33.66;40.43;;
43512;Laerm;34054;52.100;5.116;2023-11-21T01:09:59;35.90;33.73;40.16;;
43512;Laerm;34054;52.100;5.116;2023-11-21T01:10:31;35.84;33.19;40.58;;
43512;Laerm;34054;52.100;5.116;2023-11-21T01:11:03;35.91;33.47;40.56;;
43512;Laerm;34054;52.100;5.116;2023-11-21T01:11:36;35.88;32.57;40.33;;
43512;Laerm;34054;52.100;5.116;2023-11-21T01:12:09;35.87;33.38;40.41;;
43512;Laerm;34054;52.100;5.116;2023-11-21T01:12:40;35.84;33.48;40.78;;
43512;Laerm;34054;52.100;5.116;2023-11-21T01:13:14;35.87;33.61;40.00;;
43512;Laerm;34054;52.100;5.116;2023-11-21T01:13:47;35.87;33.21;40.17;;
43512;Laerm;34054;52.100;5.116;2023-11-21T01:14:19;35.83;33.42;39.31;;
43512;Laerm;34054;52.100;5.116;2023-11-21T01:14:51;35.92;33.37;40.75;;
43512;Laerm;34054;52.100;5.116;2023-11-21T01:15:22;35.84;33.56;39.63;;
43512;Laerm;34054;52.100;5.116;2023-11-21T01:15:57;35.83;33.13;39.72;;
43512;Laerm;34054;52.100;5.116;2023-11-21T01:16:29;35.82;33.64;39.55;;
43512;Laerm;34054;52.100;5.116;2023-11-21T01:17:01;35.79;33.80;40.43;;
43512;Laerm;34054;52.100;5.116;2023-11-21T01:17:35;35.80;33.10;39.39;;
43512;Laerm;34054;52.100;5.116;2023-11-21T01:18:10;35.82;33.90;39.57;;
43512;Laerm;34054;52.100;5.116;2023-11-21T01:18:42;35.82;33.55;39.34;;
43512;Laerm;34054;52.100;5.116;2023-11-21T01:19:13;35.80;33.68;40.23;;
43512;Laerm;34054;52.100;5.116;2023-11-21T01:19:45;35.74;33.57;39.59;;
43512;Laerm;34054;52.100;5.116;2023-11-21T01:20:17;35.71;33.55;39.79;;
43512;Laerm;34054;52.100;5.116;2023-11-21T01:20:49;35.75;33.08;40.00;;
43512;Laerm;34054;52.100;5.116;2023-11-21T01:21:20;35.78;33.64;39.61;;
43512;Laerm;34054;52.100;5.116;2023-11-21T01:21:53;35.79;33.55;41.17;;
43512;Laerm;34054;52.100;5.116;2023-11-21T01:22:25;35.78;33.57;39.83;;
43512;Laerm;34054;52.100;5.116;2023-11-21T01:22:57;35.78;33.55;39.27;;
43512;Laerm;34054;52.100;5.116;2023-11-21T01:23:29;35.81;33.34;39.40;;
43512;Laerm;34054;52.100;5.116;2023-11-21T01:24:00;35.80;33.57;39.43;;
43512;Laerm;34054;52.100;5.116;2023-11-21T01:24:33;35.83;33.58;40.45;;
43512;Laerm;34054;52.100;5.116;2023-11-21T01:25:06;35.75;33.56;40.04;;
43512;Laerm;34054;52.100;5.116;2023-11-21T01:25:38;35.77;33.49;39.95;;
43512;Laerm;34054;52.100;5.116;2023-11-21T01:26:10;35.75;33.20;39.91;;
43512;Laerm;34054;52.100;5.116;2023-11-21T01:26:42;35.78;33.59;39.96;;
43512;Laerm;34054;52.100;5.116;2023-11-21T01:27:16;35.75;33.19;39.97;;
43512;Laerm;34054;52.100;5.116;2023-11-21T01:27:48;35.77;32.99;39.48;;
43512;Laerm;34054;52.100;5.116;2023-11-21T01:28:20;35.72;33.77;40.23;;
43512;Laerm;34054;52.100;5.116;2023-11-21T01:28:52;35.74;33.71;40.06;;
43512;Laerm;34054;52.100;5.116;2023-11-21T01:29:24;35.75;33.57;39.28;;
43512;Laerm;34054;52.100;5.116;2023-11-21T01:29:55;35.79;33.78;40.12;;
43512;Laerm;34054;52.100;5.116;2023-11-21T01:30:27;35.74;33.45;40.10;;
43512;Laerm;34054;52.100;5.116;2023-11-21T01:30:59;35.77;33.35;39.65;;
43512;Laerm;34054;52.100;5.116;2023-11-21T01:31:31;35.80;33.54;39.35;;
43512;Laerm;34054;52.100;5.116;2023-11-21T01:32:05;35.86;33.22;39.63;;
43512;Laerm;34054;52.100;5.116;2023-11-21T01:32:39;35.89;33.08;39.85;;
43512;Laerm;34054;52.100;5.116;2023-11-21T01:33:10;35.89;33.15;40.66;;
43512;Laerm;34054;52.100;5.116;2023-11-21T01:33:42;35.89;32.52;39.61;;
43512;Laerm;34054;52.100;5.116;2023-11-21T01:34:14;35.92;33.24;39.82;;
43512;Laerm;34054;52.100;5.116;2023-11-21T01:34:47;35.95;33.42;39.71;;
43512;Laerm;34054;52.100;5.116;2023-11-21T01:35:19;35.96;33.59;39.98;;
43512;Laerm;34054;52.100;5.116;2023-11-21T01:35:50;35.99;33.30;40.11;;
43512;Laerm;34054;52.100;5.116;2023-11-21T01:36:30;35.97;33.44;39.86;;
43512;Laerm;34054;52.100;5.116;2023-11-21T01:37:05;35.97;33.68;40.16;;
43512;Laerm;34054;52.100;5.116;2023-11-21T01:37:37;35.97;33.40;40.96;;
43512;Laerm;34054;52.100;5.116;2023-11-21T01:38:08;36.02;33.35;39.21;;
43512;Laerm;34054;52.100;5.116;2023-11-21T01:38:40;36.06;33.58;40.16;;
43512;Laerm;34054;52.100;5.116;2023-11-21T01:39:13;36.10;33.78;40.43;;
43512;Laerm;34054;52.100;5.116;2023-11-21T01:39:47;36.18;33.90;40.50;;
43512;Laerm;34054;52.100;5.116;2023-11-21T01:40:18;36.17;33.32;40.10;;
43512;Laerm;34054;52.100;5.116;2023-11-21T01:40:52;36.23;33.55;40.48;;
43512;Laerm;34054;52.100;5.116;2023-11-21T01:41:23;36.24;34.00;40.63;;
43512;Laerm;34054;52.100;5.116;2023-11-21T01:41:55;36.18;33.84;41.32;;
43512;Laerm;34054;52.100;5.116;2023-11-21T01:42:29;36.22;33.92;40.44;;
43512;Laerm;34054;52.100;5.116;2023-11-21T01:43:01;36.29;33.47;41.55;;
43512;Laerm;34054;52.100;5.116;2023-11-21T01:43:34;36.26;33.89;41.55;;
43512;Laerm;34054;52.100;5.116;2023-11-21T01:44:06;36.31;33.74;39.83;;
43512;Laerm;34054;52.100;5.116;2023-11-21T01:44:40;36.35;33.17;40.93;;
43512;Laerm;34054;52.100;5.116;2023-11-21T01:45:13;36.42;34.02;40.75;;
43512;Laerm;34054;52.100;5.116;2023-11-21T01:45:44;36.36;33.93;40.67;;
43512;Laerm;34054;52.100;5.116;2023-11-21T01:46:16;36.36;34.21;40.78;;
43512;Laerm;34054;52.100;5.116;2023-11-21T01:46:48;36.36;33.56;40.16;;
43512;Laerm;34054;52.100;5.116;2023-11-21T01:47:21;36.47;34.19;41.18;;
43512;Laerm;34054;52.100;5.116;2023-11-21T01:47:53;36.48;34.02;41.20;;
43512;Laerm;34054;52.100;5.116;2023-11-21T01:48:26;36.42;34.11;40.41;;
43512;Laerm;34054;52.100;5.116;2023-11-21T01:48:58;36.45;34.20;39.89;;
43512;Laerm;34054;52.100;5.116;2023-11-21T01:49:32;36.41;33.68;41.80;;
43512;Laerm;34054;52.100;5.116;2023-11-21T01:50:07;36.40;33.87;40.07;;
43512;Laerm;34054;52.100;5.116;2023-11-21T01:50:39;36.36;33.25;40.76;;
43512;Laerm;34054;52.100;5.116;2023-11-21T01:51:11;36.35;33.30;40.57;;
43512;Laerm;34054;52.100;5.116;2023-11-21T01:51:46;36.36;33.63;40.63;;
43512;Laerm;34054;52.100;5.116;2023-11-21T01:52:20;36.35;33.64;40.47;;
43512;Laerm;34054;52.100;5.116;2023-11-21T01:52:52;36.34;33.95;41.91;;
43512;Laerm;34054;52.100;5.116;2023-11-21T01:53:26;36.35;33.81;41.05;;
43512;Laerm;34054;52.100;5.116;2023-11-21T01:53:58;36.32;33.73;39.92;;
43512;Laerm;34054;52.100;5.116;2023-11-21T01:54:30;36.33;33.83;39.53;;
43512;Laerm;34054;52.100;5.116;2023-11-21T01:55:05;36.32;33.56;40.62;;
43512;Laerm;34054;52.100;5.116;2023-11-21T01:55:37;36.28;33.72;41.06;;
43512;Laerm;34054;52.100;5.116;2023-11-21T01:56:10;36.29;31.11;39.95;;
43512;Laerm;34054;52.100;5.116;2023-11-21T01:56:42;36.26;33.78;40.54;;
43512;Laerm;34054;52.100;5.116;2023-11-21T01:57:13;36.29;34.26;40.57;;
43512;Laerm;34054;52.100;5.116;2023-11-21T01:57:48;36.31;34.26;40.16;;
43512;Laerm;34054;52.100;5.116;2023-11-21T01:58:20;36.30;34.24;40.81;;
43512;Laerm;34054;52.100;5.116;2023-11-21T01:58:53;36.24;33.83;39.99;;
43512;Laerm;34054;52.100;5.116;2023-11-21T01:59:27;36.31;33.82;40.04;;
43512;Laerm;34054;52.100;5.116;2023-11-21T02:00:02;36.33;33.96;41.63;;
43512;Laerm;34054;52.100;5.116;2023-11-21T02:00:46;36.27;33.86;40.65;;
43512;Laerm;34054;52.100;5.116;2023-11-21T02:01:20;36.29;33.89;41.07;;
43512;Laerm;34054;52.100;5.116;2023-11-21T02:01:51;36.24;33.50;40.66;;
43512;Laerm;34054;52.100;5.116;2023-11-21T02:02:24;36.25;34.08;40.32;;
43512;Laerm;34054;52.100;5.116;2023-11-21T02:02:57;36.20;33.78;40.61;;
43512;Laerm;34054;52.100;5.116;2023-11-21T02:03:30;36.29;34.18;40.76;;
43512;Laerm;34054;52.100;5.116;2023-11-21T02:04:02;36.28;34.12;39.46;;
43512;Laerm;34054;52.100;5.116;2023-11-21T02:04:35;36.33;33.77;40.00;;
43512;Laerm;34054;52.100;5.116;2023-11-21T02:05:08;36.32;33.76;41.49;;
43512;Laerm;34054;52.100;5.116;2023-11-21T02:05:40;36.32;33.97;39.19;;
43512;Laerm;34054;52.100;5.116;2023-11-21T02:06:12;36.29;33.97;40.83;;
43512;Laerm;34054;52.100;5.116;2023-11-21T02:06:43;36.32;34.22;41.12;;
43512;Laerm;34054;52.100;5.116;2023-11-21T02:07:17;36.40;34.05;40.50;;
43512;Laerm;34054;52.100;5.116;2023-11-21T02:07:50;36.46;34.24;40.66;;
43512;Laerm;34054;52.100;5.116;2023-11-21T02:08:23;36.50;33.99;41.17;;
43512;Laerm;34054;52.100;5.116;2023-11-21T02:08:55;36.53;34.02;40.00;;
43512;Laerm;34054;52.100;5.116;2023-11-21T02:09:28;36.51;33.92;40.19;;
43512;Laerm;34054;52.100;5.116;2023-11-21T02:10:00;36.48;33.79;40.99;;
43512;Laerm;34054;52.100;5.116;2023-11-21T02:10:32;36.52;34.11;40.92;;
43512;Laerm;34054;52.100;5.116;2023-11-21T02:11:06;36.54;34.07;41.33;;
43512;Laerm;34054;52.100;5.116;2023-11-21T02:11:38;36.62;33.93;40.79;;
43512;Laerm;34054;52.100;5.116;2023-11-21T02:12:10;36.61;34.04;40.69;;
43512;Laerm;34054;52.100;5.116;2023-11-21T02:12:42;36.61;34.36;40.27;;
43512;Laerm;34054;52.100;5.116;2023-11-21T02:13:14;36.62;33.68;40.61;;
43512;Laerm;34054;52.100;5.116;2023-11-21T02:13:47;36.58;34.02;41.20;;
43512;Laerm;34054;52.100;5.116;2023-11-21T02:14:21;36.54;34.15;40.86;;
43512;Laerm;34054;52.100;5.116;2023-11-21T02:14:53;36.50;34.20;41.12;;
43512;Laerm;34054;52.100;5.116;2023-11-21T02:15:25;36.66;34.51;40.66;;
43512;Laerm;34054;52.100;5.116;2023-11-21T02:16:00;36.65;34.23;40.45;;
43512;Laerm;34054;52.100;5.116;2023-11-21T02:16:31;36.64;34.54;40.50;;
43512;Laerm;34054;52.100;5.116;2023-11-21T02:17:04;36.74;34.14;41.21;;
43512;Laerm;34054;52.100;5.116;2023-11-21T02:17:37;36.68;32.83;40.49;;
43512;Laerm;34054;52.100;5.116;2023-11-21T02:18:10;36.69;34.27;40.24;;
43512;Laerm;34054;52.100;5.116;2023-11-21T02:18:42;36.69;34.64;41.38;;
43512;Laerm;34054;52.100;5.116;2023-11-21T02:19:18;36.71;34.49;40.93;;
43512;Laerm;34054;52.100;5.116;2023-11-21T02:19:51;36.77;34.35;41.21;;
43512;Laerm;34054;52.100;5.116;2023-11-21T02:20:23;36.71;33.89;40.60;;
43512;Laerm;34054;52.100;5.116;2023-11-21T02:20:56;36.80;33.97;41.70;;
43512;Laerm;34054;52.100;5.116;2023-11-21T02:21:28;36.76;33.95;41.54;;
43512;Laerm;34054;52.100;5.116;2023-11-21T02:22:02;36.73;34.21;40.69;;
43512;Laerm;34054;52.100;5.116;2023-11-21T02:22:41;36.68;34.42;42.19;;
43512;Laerm;34054;52.100;5.116;2023-11-21T02:23:14;36.59;32.89;41.00;;
43512;Laerm;34054;52.100;5.116;2023-11-21T02:23:46;36.54;33.52;41.42;;
43512;Laerm;34054;52.100;5.116;2023-11-21T02:24:19;36.55;33.87;40.86;;
43512;Laerm;34054;52.100;5.116;2023-11-21T02:24:52;36.54;33.90;40.29;;
43512;Laerm;34054;52.100;5.116;2023-11-21T02:25:24;36.57;34.18;41.43;;
43512;Laerm;34054;52.100;5.116;2023-11-21T02:25:55;36.64;34.31;41.27;;
43512;Laerm;34054;52.100;5.116;2023-11-21T02:26:28;36.73;33.54;40.54;;
43512;Laerm;34054;52.100;5.116;2023-11-21T02:26:59;36.64;34.23;41.02;;
43512;Laerm;34054;52.100;5.116;2023-11-21T02:27:31;36.67;33.94;41.37;;
43512;Laerm;34054;52.100;5.116;2023-11-21T02:28:04;36.69;33.51;42.48;;
43512;Laerm;34054;52.100;5.116;2023-11-21T02:28:37;36.73;34.48;42.34;;
43512;Laerm;34054;52.100;5.116;2023-11-21T02:29:10;36.72;34.00;41.40;;
43512;Laerm;34054;52.100;5.116;2023-11-21T02:29:43;36.72;34.24;41.15;;
43512;Laerm;34054;52.100;5.116;2023-11-21T02:30:15;36.57;34.12;41.58;;
43512;Laerm;34054;52.100;5.116;2023-11-21T02:30:47;36.64;33.47;41.45;;
43512;Laerm;34054;52.100;5.116;2023-11-21T02:31:26;36.65;31.88;41.92;;
43512;Laerm;34054;52.100;5.116;2023-11-21T02:31:58;36.68;34.08;41.89;;
43512;Laerm;34054;52.100;5.116;2023-11-21T02:32:30;36.76;33.95;41.50;;
43512;Laerm;34054;52.100;5.116;2023-11-21T02:33:02;36.71;33.71;42.08;;
43512;Laerm;34054;52.100;5.116;2023-11-21T02:33:34;36.77;34.23;41.18;;
43512;Laerm;34054;52.100;5.116;2023-11-21T02:34:05;36.78;33.85;41.53;;
43512;Laerm;34054;52.100;5.116;2023-11-21T02:34:38;36.74;34.12;40.78;;
43512;Laerm;34054;52.100;5.116;2023-11-21T02:35:10;36.79;34.46;40.88;;
43512;Laerm;34054;52.100;5.116;2023-11-21T02:35:43;36.75;34.28;41.98;;
43512;Laerm;34054;52.100;5.116;2023-11-21T02:36:16;36.70;34.19;40.61;;
43512;Laerm;34054;52.100;5.116;2023-11-21T02:36:48;36.77;34.08;42.00;;
43512;Laerm;34054;52.100;5.116;2023-11-21T02:37:20;36.72;33.31;40.87;;
43512;Laerm;34054;52.100;5.116;2023-11-21T02:37:52;36.78;33.52;40.80;;
43512;Laerm;34054;52.100;5.116;2023-11-21T02:38:26;36.82;33.46;40.45;;
43512;Laerm;34054;52.100;5.116;2023-11-21T02:38:58;36.87;33.84;41.83;;
43512;Laerm;34054;52.100;5.116;2023-11-21T02:39:29;36.83;32.90;41.86;;
43512;Laerm;34054;52.100;5.116;2023-11-21T02:40:01;36.83;34.12;40.99;;
43512;Laerm;34054;52.100;5.116;2023-11-21T02:40:35;36.81;33.45;41.26;;
43512;Laerm;34054;52.100;5.116;2023-11-21T02:41:08;36.85;33.53;42.36;;
43512;Laerm;34054;52.100;5.116;2023-11-21T02:41:39;36.79;33.96;41.19;;
43512;Laerm;34054;52.100;5.116;2023-11-21T02:42:11;36.77;33.20;40.66;;
43512;Laerm;34054;52.100;5.116;2023-11-21T02:42:44;36.82;34.08;41.81;;
43512;Laerm;34054;52.100;5.116;2023-11-21T02:43:15;36.77;32.04;42.02;;
43512;Laerm;34054;52.100;5.116;2023-11-21T02:43:47;36.80;33.77;41.17;;
43512;Laerm;34054;52.100;5.116;2023-11-21T02:44:18;36.78;33.14;40.96;;
43512;Laerm;34054;52.100;5.116;2023-11-21T02:44:51;36.74;33.20;42.53;;
43512;Laerm;34054;52.100;5.116;2023-11-21T02:45:23;36.77;32.90;40.89;;
43512;Laerm;34054;52.100;5.116;2023-11-21T02:45:55;36.78;34.23;41.31;;
43512;Laerm;34054;52.100;5.116;2023-11-21T02:46:27;36.80;32.13;41.82;;
43512;Laerm;34054;52.100;5.116;2023-11-21T02:46:59;36.77;33.27;41.29;;
43512;Laerm;34054;52.100;5.116;2023-11-21T02:47:31;36.79;34.19;41.61;;
43512;Laerm;34054;52.100;5.116;2023-11-21T02:48:03;36.76;33.14;42.20;;
43512;Laerm;34054;52.100;5.116;2023-11-21T02:48:37;36.70;32.65;41.83;;
43512;Laerm;34054;52.100;5.116;2023-11-21T02:49:08;36.76;33.34;40.94;;
43512;Laerm;34054;52.100;5.116;2023-11-21T02:49:41;36.78;33.25;42.12;;
43512;Laerm;34054;52.100;5.116;2023-11-21T02:50:12;36.74;33.79;41.59;;
43512;Laerm;34054;52.100;5.116;2023-11-21T02:50:44;36.79;34.21;41.76;;
43512;Laerm;34054;52.100;5.116;2023-11-21T02:51:17;36.76;33.55;41.37;;
43512;Laerm;34054;52.100;5.116;2023-11-21T02:51:48;36.80;33.96;40.87;;
43512;Laerm;34054;52.100;5.116;2023-11-21T02:52:20;36.74;34.34;40.67;;
43512;Laerm;34054;52.100;5.116;2023-11-21T02:52:51;36.78;33.32;42.16;;
43512;Laerm;34054;52.100;5.116;2023-11-21T02:53:25;36.84;33.96;41.61;;
43512;Laerm;34054;52.100;5.116;2023-11-21T02:53:57;36.84;33.30;40.70;;
43512;Laerm;34054;52.100;5.116;2023-11-21T02:54:30;36.85;34.29;41.57;;
43512;Laerm;34054;52.100;5.116;2023-11-21T02:55:02;36.85;32.83;41.81;;
43512;Laerm;34054;52.100;5.116;2023-11-21T02:55:35;36.89;34.27;41.80;;
43512;Laerm;34054;52.100;5.116;2023-11-21T02:56:07;36.83;34.12;42.20;;
43512;Laerm;34054;52.100;5.116;2023-11-21T02:56:39;36.90;33.44;40.89;;
43512;Laerm;34054;52.100;5.116;2023-11-21T02:57:11;36.86;33.09;42.05;;
43512;Laerm;34054;52.100;5.116;2023-11-21T02:57:44;36.81;34.10;41.75;;
43512;Laerm;34054;52.100;5.116;2023-11-21T02:58:16;36.87;34.05;41.10;;
43512;Laerm;34054;52.100;5.116;2023-11-21T02:58:47;36.90;34.41;42.15;;
43512;Laerm;34054;52.100;5.116;2023-11-21T02:59:19;36.81;34.34;41.05;;
43512;Laerm;34054;52.100;5.116;2023-11-21T02:59:51;36.78;33.70;41.26;;
43512;Laerm;34054;52.100;5.116;2023-11-21T03:00:23;36.80;34.02;41.20;;
43512;Laerm;34054;52.100;5.116;2023-11-21T03:00:57;36.75;33.13;41.44;;
43512;Laerm;34054;52.100;5.116;2023-11-21T03:01:30;36.74;34.26;41.49;;